Time;durP1;ratioP1;P1;durP2;ratioP2;P2;SDS_P1;SDS_P2;PMS_P1;PMS_P2;Temp;Humidity;BMP_temperature;BMP_pressure;BME280_temperature;BME280_humidity;BME280_pressure;Samples;Min_cycle;Max_cycle;Signal;HPM_P1;HPM_P2
2021/09/23 00:01:30;;;;;;;50.47;29.33;;;;;;;13.47;77.66;102354.34;5065747;28;20037;-62
2021/09/23 00:04:15;;;;;;;54.08;32.03;;;;;;;13.44;77.98;102345.53;5062312;28;20036;-63
2021/09/23 00:06:41;;;;;;;48.22;30.35;;;;;;;13.42;78.09;102341.09;5063512;28;20593;-63
2021/09/23 00:09:07;;;;;;;52.22;30.65;;;;;;;13.40;78.04;102335.81;5064378;28;20044;-62
2021/09/23 00:11:33;;;;;;;57.67;31.92;;;;;;;13.40;78.05;102332.28;5065143;28;20037;-62
2021/09/23 00:13:58;;;;;;;49.78;31.00;;;;;;;13.38;78.40;102324.34;5064437;28;20059;-62
2021/09/23 00:16:24;;;;;;;49.83;29.55;;;;;;;13.39;78.09;102333.16;5064618;28;20029;-62
2021/09/23 00:18:51;;;;;;;57.10;31.65;;;;;;;13.36;78.18;102328.72;5064730;28;20033;-62
2021/09/23 00:21:17;;;;;;;57.85;32.72;;;;;;;13.37;78.17;102329.63;5066059;28;20423;-61
2021/09/23 00:23:45;;;;;;;52.15;30.13;;;;;;;13.35;78.17;102319.03;5064874;28;20032;-61
2021/09/23 00:26:11;;;;;;;56.30;29.92;;;;;;;13.34;78.18;102316.38;5065877;28;20537;-62
2021/09/23 00:28:36;;;;;;;55.47;31.13;;;;;;;13.33;78.37;102314.63;5063580;28;20036;-61
2021/09/23 00:31:02;;;;;;;51.65;29.55;;;;;;;13.35;78.02;102316.41;5064041;28;20485;-62
2021/09/23 00:33:27;;;;;;;53.53;30.00;;;;;;;13.35;78.45;102324.31;5063779;28;20033;-62
2021/09/23 00:35:52;;;;;;;50.78;29.35;;;;;;;13.32;78.15;102324.28;5064702;28;20036;-62
2021/09/23 00:38:18;;;;;;;52.60;29.80;;;;;;;13.31;78.36;102332.16;5065664;28;20029;-62
2021/09/23 00:40:43;;;;;;;51.10;29.40;;;;;;;13.26;78.57;102324.19;5061884;28;20029;-61
2021/09/23 00:43:09;;;;;;;50.17;28.75;;;;;;;13.24;78.30;102326.78;5064785;28;20040;-61
2021/09/23 00:45:34;;;;;;;51.35;30.15;;;;;;;13.24;78.86;102324.16;5064641;28;20025;-62
2021/09/23 00:47:59;;;;;;;46.63;28.60;;;;;;;13.23;78.72;102319.75;5065550;28;20033;-61
2021/09/23 00:50:25;;;;;;;47.78;27.20;;;;;;;13.23;79.00;102309.22;5064546;28;20029;-62
2021/09/23 00:52:51;;;;;;;51.53;29.48;;;;;;;13.23;79.05;102311.84;5065091;28;20059;-62
2021/09/23 00:55:18;;;;;;;49.83;29.73;;;;;;;13.23;79.36;102316.22;5064585;28;20092;-63
2021/09/23 00:57:44;;;;;;;50.70;29.00;;;;;;;13.24;79.35;102312.72;5064458;28;20040;-61
2021/09/23 01:00:12;;;;;;;47.10;27.95;;;;;;;13.24;79.51;102310.97;5064242;28;20024;-61
2021/09/23 01:02:38;;;;;;;49.40;28.63;;;;;;;13.25;79.53;102311.84;5063924;28;20024;-61
2021/09/23 01:05:04;;;;;;;53.65;29.60;;;;;;;13.28;79.45;102303.97;5063467;28;20086;-62
2021/09/23 01:07:30;;;;;;;50.10;30.23;;;;;;;13.30;80.03;102302.25;5064591;28;20044;-63
2021/09/23 01:09:56;;;;;;;52.65;29.08;;;;;;;13.33;80.28;102293.50;5062783;28;20029;-62
2021/09/23 01:12:24;;;;;;;50.10;28.63;;;;;;;13.33;80.12;102289.09;5065564;28;20131;-62
2021/09/23 01:14:51;;;;;;;49.63;28.38;;;;;;;13.38;80.05;102289.13;5064160;28;20028;-61
2021/09/23 01:17:17;;;;;;;51.88;28.67;;;;;;;13.43;80.98;102301.50;5058954;28;20040;-61
2021/09/23 01:19:44;;;;;;;52.97;30.60;;;;;;;13.45;81.31;102288.31;5064064;28;20120;-62
2021/09/23 01:22:12;;;;;;;49.95;29.23;;;;;;;13.48;81.22;102284.81;5063966;28;20044;-62
2021/09/23 01:24:38;;;;;;;55.35;30.83;;;;;;;13.49;81.65;102279.56;5063935;28;20065;-62
2021/09/23 01:27:05;;;;;;;54.20;31.17;;;;;;;13.52;81.80;102276.94;5063813;28;20037;-62
2021/09/23 01:29:32;;;;;;;55.92;31.33;;;;;;;13.56;82.26;102288.44;5063005;28;20077;-62
2021/09/23 01:31:58;;;;;;;54.03;30.75;;;;;;;13.63;82.19;102287.63;5061837;28;20106;-62
2021/09/23 01:34:23;;;;;;;55.30;30.88;;;;;;;13.67;82.25;102285.84;5063942;28;20029;-61
2021/09/23 01:36:49;;;;;;;54.30;31.83;;;;;;;13.71;82.73;102287.69;5064299;28;20040;-62
2021/09/23 01:39:21;;;;;;;53.80;29.50;;;;;;;13.77;82.64;102285.09;5062078;28;20020;-62
2021/09/23 01:41:47;;;;;;;52.92;30.52;;;;;;;13.82;82.55;102267.53;5056915;28;20025;-62
2021/09/23 01:44:13;;;;;;;50.17;30.10;;;;;;;13.88;82.88;102267.56;5062942;28;20393;-63
2021/09/23 01:46:38;;;;;;;56.00;30.35;;;;;;;13.92;82.83;102269.34;5063291;28;20449;-63
2021/09/23 01:49:04;;;;;;;54.95;30.50;;;;;;;13.96;82.92;102263.19;5063567;28;20029;-62
2021/09/23 01:51:30;;;;;;;53.53;30.33;;;;;;;13.98;82.94;102250.88;5065412;28;20075;-62
2021/09/23 01:53:55;;;;;;;54.90;31.80;;;;;;;14.01;83.19;102236.81;5063307;28;20550;-61
2021/09/23 01:56:20;;;;;;;54.60;31.27;;;;;;;14.02;83.44;102228.88;5063805;28;20040;-62
2021/09/23 01:58:46;;;;;;;50.13;30.23;;;;;;;14.05;83.87;102235.97;5061959;28;20071;-61
2021/09/23 02:01:12;;;;;;;50.45;29.60;;;;;;;14.06;83.95;102229.78;5062619;28;20032;-62
2021/09/23 02:03:37;;;;;;;49.40;28.58;;;;;;;14.08;83.97;102224.50;5063125;28;20033;-62
2021/09/23 02:06:12;;;;;;;45.88;27.48;;;;;;;14.08;84.23;102213.94;5142713;27;21066;-61
2021/09/23 02:08:37;;;;;;;53.05;30.52;;;;;;;14.11;84.08;102208.69;5127082;28;20035;-61
2021/09/23 02:11:05;;;;;;;49.30;28.90;;;;;;;14.11;84.48;102206.03;5109277;28;20059;-61
2021/09/23 02:13:30;;;;;;;46.90;27.48;;;;;;;14.15;84.22;102198.13;5118079;28;20515;-62
2021/09/23 02:15:55;;;;;;;41.25;27.05;;;;;;;14.12;84.92;102206.06;5105660;28;20043;-62
2021/09/23 02:18:21;;;;;;;53.15;29.63;;;;;;;14.09;85.35;102184.00;5109485;28;20046;-62
2021/09/23 02:20:46;;;;;;;50.05;28.48;;;;;;;14.07;85.38;102188.41;5114546;28;20031;-62
2021/09/23 02:23:11;;;;;;;53.30;30.83;;;;;;;14.08;85.67;102179.59;5100933;28;20052;-62
2021/09/23 02:25:37;;;;;;;56.25;30.55;;;;;;;14.06;86.14;102163.72;5116855;28;20176;-62
2021/09/23 02:28:02;;;;;;;56.25;30.58;;;;;;;14.04;86.21;102170.75;5107489;28;20096;-61
2021/09/23 02:30:29;;;;;;;56.60;30.73;;;;;;;14.04;86.58;102168.09;5121413;28;20035;-61
2021/09/23 02:32:55;;;;;;;53.60;31.10;;;;;;;14.06;86.58;102174.28;5118803;28;20070;-62
2021/09/23 02:35:20;;;;;;;57.35;31.58;;;;;;;14.03;86.83;102169.88;5101910;28;20519;-61
2021/09/23 02:37:46;;;;;;;58.63;32.75;;;;;;;14.04;87.01;102170.75;5104460;28;20052;-62
2021/09/23 02:40:12;;;;;;;62.65;33.85;;;;;;;14.02;86.92;102164.56;5109106;28;20110;-62
2021/09/23 02:42:37;;;;;;;61.92;32.70;;;;;;;14.01;87.40;102149.63;5116964;28;20039;-62
2021/09/23 02:45:04;;;;;;;66.35;34.08;;;;;;;14.00;87.36;102146.06;5106557;28;20376;-62
2021/09/23 02:47:29;;;;;;;61.65;32.92;;;;;;;14.01;87.60;102134.63;5109094;28;20020;-62
2021/09/23 02:49:55;;;;;;;60.67;34.00;;;;;;;14.01;87.68;102133.75;5120612;28;20039;-60
2021/09/23 02:52:20;;;;;;;63.33;34.88;;;;;;;14.01;87.61;102134.63;5115306;28;20042;-61
2021/09/23 02:54:46;;;;;;;59.05;33.28;;;;;;;14.03;87.54;102138.16;5122895;28;20027;-61
2021/09/23 02:57:11;;;;;;;62.45;35.78;;;;;;;14.02;88.08;102140.78;5131619;28;20042;-61
2021/09/23 02:59:37;;;;;;;63.42;35.30;;;;;;;14.01;88.13;102139.91;5116027;28;20024;-63
2021/09/23 03:02:03;;;;;;;64.20;34.53;;;;;;;14.09;88.14;102145.22;5113209;28;20048;-62
2021/09/23 03:04:28;;;;;;;66.65;35.80;;;;;;;14.15;88.50;102145.25;5110053;28;20188;-61
2021/09/23 03:06:53;;;;;;;69.68;35.45;;;;;;;14.17;88.15;102145.25;5108752;28;20024;-61
2021/09/23 03:09:19;;;;;;;73.20;37.22;;;;;;;14.18;88.50;102139.13;5106411;28;20029;-61
2021/09/23 03:11:45;;;;;;;71.53;38.10;;;;;;;14.21;88.50;102144.41;5115835;28;20050;-62
2021/09/23 03:14:10;;;;;;;73.00;38.70;;;;;;;14.23;88.56;102132.97;5103846;28;20047;-61
2021/09/23 03:16:36;;;;;;;74.65;38.22;;;;;;;14.26;88.72;102136.50;5114318;28;20031;-62
2021/09/23 03:19:01;;;;;;;66.47;36.22;;;;;;;14.27;88.37;102122.38;5102679;28;20071;-62
2021/09/23 03:21:27;;;;;;;74.78;38.00;;;;;;;14.29;88.63;102129.47;5094228;28;20084;-62
2021/09/23 03:23:52;;;;;;;72.00;37.45;;;;;;;14.30;88.60;102120.63;5099995;28;20033;-62
2021/09/23 03:26:17;;;;;;;71.18;38.50;;;;;;;14.30;88.70;102115.34;5101478;28;20043;-62
2021/09/23 03:28:43;;;;;;;73.72;37.55;;;;;;;14.28;88.38;102119.75;5096896;28;20035;-62
2021/09/23 03:31:08;;;;;;;75.82;39.00;;;;;;;14.27;88.59;102111.81;5095023;28;20078;-62
2021/09/23 03:33:34;;;;;;;73.85;38.35;;;;;;;14.25;88.54;102111.81;5106325;28;20027;-62
2021/09/23 03:35:59;;;;;;;77.55;39.90;;;;;;;14.22;88.63;102102.13;5098099;28;20137;-61
2021/09/23 03:38:24;;;;;;;75.70;40.53;;;;;;;14.22;88.90;102106.53;5117764;28;20137;-62
2021/09/23 03:40:50;;;;;;;72.65;39.03;;;;;;;14.22;88.88;102103.88;5099688;28;20447;-62
2021/09/23 03:43:17;;;;;;;77.88;38.50;;;;;;;14.21;88.71;102115.31;5093651;28;20086;-61
2021/09/23 03:45:42;;;;;;;69.55;38.47;;;;;;;14.19;88.95;102119.72;5085698;28;20028;-61
2021/09/23 03:48:08;;;;;;;70.65;36.13;;;;;;;14.21;89.02;102116.22;5075489;28;20032;-62
2021/09/23 03:50:34;;;;;;;64.10;34.25;;;;;;;14.26;89.04;102113.59;5095809;28;20059;-61
2021/09/23 03:52:59;;;;;;;60.03;31.05;;;;;;;14.33;89.16;102115.38;5104777;28;20031;-62
2021/09/23 03:55:25;;;;;;;46.40;26.40;;;;;;;14.43;88.80;102127.72;5116872;28;20031;-62
2021/09/23 03:57:50;;;;;;;32.00;20.05;;;;;;;14.56;88.42;102127.78;5094779;28;20052;-61
2021/09/23 04:00:20;;;;;;;24.08;17.98;;;;;;;14.70;87.82;102133.13;5099236;28;20050;-61
2021/09/23 04:02:46;;;;;;;32.55;17.73;;;;;;;14.78;86.88;102124.31;5091485;28;20066;-61
2021/09/23 04:05:11;;;;;;;25.00;15.88;;;;;;;14.85;86.68;102121.69;5100148;28;20056;-61
2021/09/23 04:07:36;;;;;;;24.40;14.43;;;;;;;14.95;86.26;102120.78;5099149;28;20033;-62
2021/09/23 04:10:02;;;;;;;26.60;14.38;;;;;;;15.04;85.87;102120.78;5086914;28;20079;-62
2021/09/23 04:12:28;;;;;;;22.15;14.00;;;;;;;15.14;85.40;102119.94;5107690;28;20040;-61
2021/09/23 04:14:53;;;;;;;25.85;14.98;;;;;;;15.20;84.66;102114.63;5092659;28;20028;-62
2021/09/23 04:17:19;;;;;;;22.77;13.15;;;;;;;15.26;84.30;102111.09;5112813;28;20766;-62
2021/09/23 04:19:45;;;;;;;21.85;13.35;;;;;;;15.28;83.93;102105.81;5118175;28;20050;-62
2021/09/23 04:22:11;;;;;;;19.65;12.90;;;;;;;15.34;83.67;102097.84;5113166;28;20063;-61
2021/09/23 04:24:37;;;;;;;20.58;12.90;;;;;;;15.37;83.57;102081.97;5096485;28;20079;-62
2021/09/23 04:27:02;;;;;;;29.20;14.65;;;;;;;15.37;83.56;102074.88;5097356;28;20040;-61
2021/09/23 04:29:28;;;;;;;28.75;12.40;;;;;;;15.35;83.38;102070.50;5092267;28;20141;-61
2021/09/23 04:31:54;;;;;;;24.55;12.75;;;;;;;15.37;83.52;102060.78;5099225;28;20064;-62
2021/09/23 04:34:20;;;;;;;22.13;13.27;;;;;;;15.34;83.79;102060.75;5105615;28;20445;-62
2021/09/23 04:36:45;;;;;;;26.67;13.98;;;;;;;15.29;83.98;102058.13;5096848;28;20020;-62
2021/09/23 04:39:12;;;;;;;27.50;13.90;;;;;;;15.26;83.81;102052.84;5086990;28;20035;-62
2021/09/23 04:41:37;;;;;;;27.58;13.93;;;;;;;15.20;84.29;102043.13;5090967;28;20032;-62
2021/09/23 04:44:03;;;;;;;24.02;13.38;;;;;;;15.18;84.03;102039.63;5095396;28;20119;-61
2021/09/23 04:46:29;;;;;;;19.90;12.48;;;;;;;15.17;84.04;102023.72;5115838;28;20082;-61
2021/09/23 04:48:55;;;;;;;18.70;10.88;;;;;;;15.20;83.95;102014.00;5116424;28;20047;-61
2021/09/23 04:51:22;;;;;;;19.40;10.98;;;;;;;15.20;84.05;102013.16;5106625;28;20032;-61
2021/09/23 04:53:47;;;;;;;22.40;13.15;;;;;;;15.19;83.95;102016.66;5109611;28;20035;-61
2021/09/23 04:56:13;;;;;;;18.02;10.60;;;;;;;15.25;83.71;102014.00;5121562;28;21110;-62
2021/09/23 04:58:38;;;;;;;16.92;10.35;;;;;;;15.25;82.99;102015.75;5100519;28;20105;-62
2021/09/23 05:01:04;;;;;;;14.85;9.63;;;;;;;15.26;83.18;102014.91;5108579;28;20035;-62
2021/09/23 05:03:29;;;;;;;18.15;10.50;;;;;;;15.25;82.58;102013.13;5098731;28;20137;-62
2021/09/23 05:05:55;;;;;;;15.52;8.73;;;;;;;15.23;82.81;102009.59;5093333;28;20472;-62
2021/09/23 05:08:20;;;;;;;16.30;9.18;;;;;;;15.18;82.49;101999.03;5084069;28;20035;-62
2021/09/23 05:10:46;;;;;;;17.27;8.43;;;;;;;15.15;81.77;101996.38;5098733;28;20130;-62
2021/09/23 05:13:11;;;;;;;15.65;8.25;;;;;;;15.14;81.75;101995.50;5106081;28;20082;-62
2021/09/23 05:15:39;;;;;;;18.27;7.97;;;;;;;15.18;81.33;101989.31;5091985;28;20041;-62
2021/09/23 05:18:04;;;;;;;11.68;7.53;;;;;;;15.19;80.84;101980.47;5095385;28;20028;-62
2021/09/23 05:20:30;;;;;;;17.48;7.75;;;;;;;15.20;80.30;101990.19;5098894;28;20190;-61
2021/09/23 05:22:55;;;;;;;13.55;7.43;;;;;;;15.21;80.15;101986.63;5092313;28;20028;-62
2021/09/23 05:25:21;;;;;;;12.90;7.43;;;;;;;15.20;80.26;101987.53;5114808;28;20039;-61
2021/09/23 05:27:47;;;;;;;18.50;8.27;;;;;;;15.25;80.00;101978.69;5104526;28;20036;-63
2021/09/23 05:30:13;;;;;;;17.77;8.18;;;;;;;15.22;80.53;101971.66;5097191;28;20204;-62
2021/09/23 05:32:40;;;;;;;12.38;8.05;;;;;;;15.20;80.49;101979.59;5105442;28;20039;-61
2021/09/23 05:35:07;;;;;;;13.73;7.57;;;;;;;15.26;80.18;101983.13;5097290;28;20032;-61
2021/09/23 05:37:32;;;;;;;12.38;7.07;;;;;;;15.32;79.87;101981.31;5096080;28;20554;-62
2021/09/23 05:39:57;;;;;;;15.93;7.75;;;;;;;15.37;79.07;101986.63;5092497;28;20031;-62
2021/09/23 05:42:23;;;;;;;14.65;7.95;;;;;;;15.31;79.21;101986.63;5095555;28;20168;-61
2021/09/23 05:44:48;;;;;;;11.60;7.40;;;;;;;15.31;79.50;101987.53;5091534;28;20031;-62
2021/09/23 05:47:14;;;;;;;16.50;8.50;;;;;;;15.31;79.63;101991.91;5088570;28;20032;-62
2021/09/23 05:49:40;;;;;;;10.98;8.25;;;;;;;15.34;79.54;101990.13;5110541;28;20119;-62
2021/09/23 05:52:06;;;;;;;13.68;7.85;;;;;;;15.37;79.64;101990.13;5090602;28;20038;-62
2021/09/23 05:54:32;;;;;;;15.35;7.20;;;;;;;15.47;79.19;101988.34;5098535;28;20036;-62
2021/09/23 05:56:57;;;;;;;16.35;8.35;;;;;;;15.58;79.13;101998.91;5102079;28;20077;-63
2021/09/23 05:59:26;;;;;;;13.77;7.95;;;;;;;15.63;78.92;101988.25;5089627;28;20553;-60
2021/09/23 06:01:55;;;;;;;12.20;7.20;;;;;;;15.70;78.72;101990.88;5117160;28;20035;-61
2021/09/23 06:04:22;;;;;;;12.50;6.93;;;;;;;15.75;78.24;101989.13;5103141;28;20120;-61
2021/09/23 06:06:48;;;;;;;14.02;7.30;;;;;;;15.81;77.23;101996.16;5109606;28;20032;-60
2021/09/23 06:09:13;;;;;;;17.80;7.07;;;;;;;15.85;76.29;102005.84;5090882;28;20028;-61
2021/09/23 06:11:39;;;;;;;13.48;6.43;;;;;;;15.87;75.13;101997.91;5098217;28;20032;-62
2021/09/23 06:14:05;;;;;;;12.90;5.38;;;;;;;15.88;74.45;102005.84;5105148;28;20028;-61
2021/09/23 06:16:31;;;;;;;11.45;5.35;;;;;;;15.93;74.15;102004.03;5102722;28;20036;-61
2021/09/23 06:18:56;;;;;;;11.30;5.20;;;;;;;15.89;74.09;102001.44;5094279;28;20078;-61
2021/09/23 06:21:21;;;;;;;12.27;5.68;;;;;;;15.93;73.82;101990.78;5092480;28;20512;-62
2021/09/23 06:23:47;;;;;;;9.05;5.55;;;;;;;15.97;73.95;102000.50;5095559;28;20100;-61
2021/09/23 06:26:12;;;;;;;10.38;5.57;;;;;;;16.08;73.20;101997.78;5089416;28;20071;-61
2021/09/23 06:28:38;;;;;;;9.20;5.18;;;;;;;16.10;73.69;101995.13;5099380;28;20038;-61
2021/09/23 06:31:03;;;;;;;11.75;5.80;;;;;;;16.13;73.91;101992.47;5090693;28;20036;-61
2021/09/23 06:33:29;;;;;;;9.77;4.82;;;;;;;16.11;74.31;101988.94;5096540;28;20042;-60
2021/09/23 06:35:54;;;;;;;13.65;6.10;;;;;;;16.11;74.55;101987.16;5090916;28;20020;-62
2021/09/23 06:38:20;;;;;;;10.55;5.53;;;;;;;16.09;74.83;101996.03;5090549;28;20039;-61
2021/09/23 06:40:45;;;;;;;10.98;5.95;;;;;;;16.10;74.83;101976.56;5095632;28;20040;-62
2021/09/23 06:43:11;;;;;;;13.07;5.50;;;;;;;16.10;74.45;101981.84;5088800;28;20075;-61
2021/09/23 06:45:36;;;;;;;10.27;5.45;;;;;;;16.10;74.68;101984.50;5091309;28;20130;-61
2021/09/23 06:48:02;;;;;;;10.38;5.57;;;;;;;16.09;74.77;101985.41;5093820;28;20089;-61
2021/09/23 06:50:27;;;;;;;10.45;5.70;;;;;;;16.09;74.68;101975.69;5096701;28;20375;-61
2021/09/23 06:52:53;;;;;;;13.98;5.43;;;;;;;16.17;74.39;101971.19;5092493;28;20027;-61
2021/09/23 06:55:18;;;;;;;11.48;6.38;;;;;;;16.17;74.54;101962.38;5102063;28;20024;-62
2021/09/23 06:57:44;;;;;;;13.43;5.88;;;;;;;16.22;74.70;101954.38;5107770;28;20020;-62
2021/09/23 07:00:10;;;;;;;14.55;6.25;;;;;;;16.26;75.07;101948.19;5099944;28;20071;-58
2021/09/23 07:02:36;;;;;;;12.02;5.30;;;;;;;16.34;74.88;101943.69;5103130;28;20027;-60
2021/09/23 07:05:01;;;;;;;12.05;6.05;;;;;;;16.44;74.44;101934.75;5097136;28;20059;-59
2021/09/23 07:07:27;;;;;;;14.38;5.50;;;;;;;16.59;73.29;101930.19;5094366;28;20109;-59
2021/09/23 07:09:53;;;;;;;9.38;4.40;;;;;;;16.71;72.78;101936.28;5078744;28;20058;-58
2021/09/23 07:12:19;;;;;;;13.25;5.20;;;;;;;16.82;72.39;101943.25;5098787;28;20028;-60
2021/09/23 07:14:44;;;;;;;11.18;4.00;;;;;;;16.96;71.60;101938.72;5098625;28;20104;-62
2021/09/23 07:17:09;;;;;;;6.50;4.30;;;;;;;17.10;70.93;101952.69;5101610;28;20035;-60
2021/09/23 07:19:35;;;;;;;14.77;6.18;;;;;;;17.19;70.53;101949.06;5104875;28;20095;-62
2021/09/23 07:22:03;;;;;;;10.43;4.50;;;;;;;17.29;70.59;101934.78;5101518;28;20055;-63
2021/09/23 07:24:29;;;;;;;13.30;5.20;;;;;;;17.39;70.90;101930.25;5092542;28;20059;-62
2021/09/23 07:26:54;;;;;;;11.88;4.35;;;;;;;17.48;70.75;101927.44;5095304;28;20048;-61
2021/09/23 07:29:19;;;;;;;9.45;4.00;;;;;;;17.66;69.29;101914.84;5104650;28;20063;-67
2021/09/23 07:31:46;;;;;;;7.78;4.00;;;;;;;17.76;68.83;101918.22;5112752;28;20028;-64
2021/09/23 07:34:13;;;;;;;8.90;3.97;;;;;;;17.81;68.18;101906.63;5095630;28;20029;-64
2021/09/23 07:36:39;;;;;;;8.02;3.95;;;;;;;17.90;68.30;101902.97;5090410;28;20055;-64
2021/09/23 07:39:09;;;;;;;9.43;3.97;;;;;;;17.96;67.42;101886.94;5100845;28;20107;-65
2021/09/23 07:41:39;;;;;;;7.70;3.83;;;;;;;17.95;67.50;101902.91;5097176;28;20028;-63
2021/09/23 07:44:06;;;;;;;8.82;3.92;;;;;;;17.96;66.98;101902.00;5091158;28;20056;-65
2021/09/23 07:46:32;;;;;;;8.88;3.50;;;;;;;17.96;65.96;101912.63;5085715;28;20020;-64
2021/09/23 07:48:57;;;;;;;10.15;3.85;;;;;;;17.84;66.60;101901.28;5092638;28;20034;-64
2021/09/23 07:51:22;;;;;;;12.73;4.38;;;;;;;17.77;66.94;101915.56;5104034;28;20052;-64
2021/09/23 07:53:48;;;;;;;11.07;4.05;;;;;;;17.74;66.87;101915.59;5102497;28;20028;-64
2021/09/23 07:56:14;;;;;;;11.52;3.47;;;;;;;17.68;66.50;101921.88;5079252;28;20155;-64
2021/09/23 07:58:39;;;;;;;8.80;3.75;;;;;;;17.60;66.74;101921.09;5089781;28;20040;-64
2021/09/23 08:01:05;;;;;;;9.20;3.53;;;;;;;17.62;66.80;101934.38;5105921;28;20044;-64
2021/09/23 08:03:30;;;;;;;10.45;3.30;;;;;;;17.70;66.58;101941.34;5080075;28;20028;-64
2021/09/23 08:05:55;;;;;;;8.73;3.40;;;;;;;17.86;66.44;101939.38;5089916;28;20084;-64
2021/09/23 08:08:21;;;;;;;7.10;3.00;;;;;;;18.00;64.87;101944.50;5101759;28;20398;-64
2021/09/23 08:10:46;;;;;;;5.53;2.92;;;;;;;18.00;65.31;101951.59;5093520;28;20033;-64
2021/09/23 08:13:12;;;;;;;5.53;3.08;;;;;;;17.92;65.64;101943.72;5092534;28;20040;-64
2021/09/23 08:15:37;;;;;;;12.32;3.33;;;;;;;17.84;65.62;101959.75;5094176;28;20086;-63
2021/09/23 08:18:03;;;;;;;9.40;3.22;;;;;;;17.61;66.48;101960.06;5099631;28;20108;-64
2021/09/23 08:20:28;;;;;;;10.30;3.90;;;;;;;17.57;66.52;101968.97;5104454;28;20591;-64
2021/09/23 08:22:54;;;;;;;9.60;3.40;;;;;;;17.45;67.43;101971.81;5105528;28;20036;-65
2021/09/23 08:25:19;;;;;;;10.75;3.33;;;;;;;17.40;67.81;101958.56;5112072;28;20043;-64
2021/09/23 08:27:45;;;;;;;6.30;3.00;;;;;;;17.34;68.15;101966.59;5102052;28;20051;-64
2021/09/23 08:30:11;;;;;;;12.13;3.53;;;;;;;17.30;68.30;101954.28;5098991;28;20032;-63
2021/09/23 08:32:36;;;;;;;9.95;3.72;;;;;;;17.32;68.07;101963.09;5097189;28;20024;-65
2021/09/23 08:35:08;;;;;;;8.85;3.38;;;;;;;17.32;67.43;101990.53;5104809;28;20290;-63
2021/09/23 08:37:38;;;;;;;10.25;3.78;;;;;;;17.37;66.83;101985.16;5094080;28;20376;-64
2021/09/23 08:40:10;;;;;;;9.75;3.28;;;;;;;17.39;66.56;101991.34;5094631;28;20062;-64
2021/09/23 08:42:37;;;;;;;7.68;2.85;;;;;;;17.43;66.03;101990.41;5123495;28;20032;-63
2021/09/23 08:45:04;;;;;;;11.55;3.40;;;;;;;17.45;66.65;101979.78;5114940;28;20042;-64
2021/09/23 08:47:31;;;;;;;8.52;3.40;;;;;;;17.45;66.69;101979.78;5100190;28;20039;-63
2021/09/23 08:49:56;;;;;;;9.57;2.67;;;;;;;17.40;67.26;101976.28;5079320;28;20056;-65
2021/09/23 08:52:23;;;;;;;5.88;2.90;;;;;;;17.34;67.35;101983.41;5104154;28;20028;-63
2021/09/23 08:54:48;;;;;;;8.30;3.05;;;;;;;17.38;67.46;101967.44;5098647;28;20036;-64
2021/09/23 08:57:14;;;;;;;8.18;2.85;;;;;;;17.45;66.77;101971.81;5120787;28;20024;-64
2021/09/23 08:59:39;;;;;;;6.60;2.80;;;;;;;17.44;66.37;101975.34;5104738;28;20034;-63
2021/09/23 09:02:20;;;;;;;10.60;3.10;;;;;;;17.37;67.60;101974.53;5124118;28;20062;-63
2021/09/23 09:04:51;;;;;;;9.32;3.13;;;;;;;17.37;67.70;101960.38;5100574;28;20140;-64
2021/09/23 09:07:25;;;;;;;6.25;3.00;;;;;;;17.42;66.90;101955.88;5114031;28;20031;-64
2021/09/23 09:09:50;;;;;;;6.20;2.65;;;;;;;17.41;67.32;101948.78;5094726;28;20031;-64
2021/09/23 09:12:16;;;;;;;7.95;3.03;;;;;;;17.46;67.62;101955.81;5099213;28;20072;-64
2021/09/23 09:14:43;;;;;;;9.60;2.97;;;;;;;17.49;67.16;101958.44;5102433;28;20040;-64
2021/09/23 09:17:08;;;;;;;9.80;2.78;;;;;;;17.51;66.99;101955.78;5096465;28;20119;-65
2021/09/23 09:19:47;;;;;;;6.75;2.63;;;;;;;17.59;65.99;101953.88;5092487;28;20049;-64
2021/09/23 09:22:18;;;;;;;7.32;2.72;;;;;;;17.54;66.14;101942.44;5101559;28;20031;-64
2021/09/23 09:25:04;;;;;;;5.40;2.78;;;;;;;17.46;66.37;101963.78;5123934;28;20077;-65
2021/09/23 09:27:41;;;;;;;9.57;3.13;;;;;;;17.41;66.83;101965.66;5095262;28;20024;-65
2021/09/23 09:30:16;;;;;;;8.75;2.88;;;;;;;17.37;67.05;101963.03;5098667;28;20046;-65
2021/09/23 09:32:45;;;;;;;6.72;2.95;;;;;;;17.41;66.45;101955.00;5083069;28;20108;-64
2021/09/23 09:35:16;;;;;;;7.57;3.00;;;;;;;17.35;67.15;101960.38;5109779;28;20051;-66
2021/09/23 09:37:46;;;;;;;7.50;3.05;;;;;;;17.32;66.76;101957.78;5111152;28;20035;-64
2021/09/23 09:40:16;;;;;;;8.30;2.95;;;;;;;17.39;66.26;101970.09;5101685;28;20028;-64
2021/09/23 09:42:43;;;;;;;10.90;3.10;;;;;;;17.43;65.75;101966.50;5103726;28;20028;-66
2021/09/23 09:45:15;;;;;;;7.13;2.67;;;;;;;17.40;65.91;101970.97;5111791;28;20472;-65
2021/09/23 09:47:41;;;;;;;5.68;3.25;;;;;;;17.33;66.83;101956.88;5103350;28;20093;-64
2021/09/23 09:50:14;;;;;;;8.60;3.58;;;;;;;17.41;66.12;101967.41;5108426;28;20595;-63
2021/09/23 09:52:47;;;;;;;8.32;3.50;;;;;;;17.32;67.00;101971.06;5123809;28;20028;-65
2021/09/23 09:55:13;;;;;;;14.27;3.45;;;;;;;17.35;67.28;101960.38;5109702;28;20052;-65
2021/09/23 09:57:50;;;;;;;9.02;3.60;;;;;;;17.41;67.31;101964.75;5084900;28;20037;-64
2021/09/23 10:00:16;;;;;;;14.05;4.00;;;;;;;17.45;66.58;101964.69;5091498;28;20032;-65
2021/09/23 10:02:43;;;;;;;8.00;4.20;;;;;;;17.53;66.66;101967.25;5088805;28;20031;-65
2021/09/23 10:05:14;;;;;;;9.45;3.10;;;;;;;17.54;65.96;101959.28;5112940;28;20040;-67
2021/09/23 10:07:44;;;;;;;6.95;4.18;;;;;;;17.61;65.92;101965.38;5102502;28;20024;-63
2021/09/23 10:10:11;;;;;;;13.05;3.33;;;;;;;17.73;65.34;101959.91;5087416;28;20032;-66
2021/09/23 10:12:39;;;;;;;10.25;3.08;;;;;;;17.82;64.88;101948.25;5123306;28;20035;-65
2021/09/23 10:15:06;;;;;;;9.38;2.92;;;;;;;17.89;64.86;101965.91;5105034;28;20047;-65
2021/09/23 10:17:32;;;;;;;7.28;2.75;;;;;;;17.98;64.94;101950.75;5099559;28;20385;-64
2021/09/23 10:20:00;;;;;;;8.75;2.42;;;;;;;17.99;65.28;101949.81;5098650;28;20040;-63
2021/09/23 10:22:27;;;;;;;7.10;2.10;;;;;;;18.00;65.95;101943.63;5090750;28;20047;-63
2021/09/23 10:24:54;;;;;;;7.60;2.00;;;;;;;18.10;64.79;101939.91;5101125;28;20038;-64
2021/09/23 10:30:06;;;;;;;7.53;2.15;;;;;;;18.22;63.23;101944.13;5107388;28;20067;-63
2021/09/23 10:32:32;;;;;;;9.90;2.40;;;;;;;18.17;63.85;101930.94;5119765;28;20042;-64
2021/09/23 10:34:58;;;;;;;7.75;2.20;;;;;;;18.23;63.87;101936.13;5116823;28;20047;-64
2021/09/23 10:37:24;;;;;;;7.72;2.00;;;;;;;18.32;63.30;101937.78;5124975;28;20499;-64
2021/09/23 10:39:50;;;;;;;9.38;1.98;;;;;;;18.37;63.53;101924.38;5104522;28;20081;-64
2021/09/23 10:42:21;;;;;;;9.35;1.92;;;;;;;18.40;63.80;101919.03;5100672;28;20110;-63
2021/09/23 10:44:53;;;;;;;11.27;2.17;;;;;;;18.49;63.02;101924.19;5118139;28;20110;-61
2021/09/23 10:47:27;;;;;;;8.82;2.08;;;;;;;18.63;62.50;101919.47;5127059;28;20127;-62
2021/09/23 10:49:53;;;;;;;9.35;2.20;;;;;;;18.72;62.69;101914.91;5104728;28;20041;-62
2021/09/23 10:52:22;;;;;;;8.38;1.95;;;;;;;18.78;62.82;101906.81;5089864;28;20020;-61
2021/09/23 10:54:52;;;;;;;7.85;2.00;;;;;;;18.90;62.75;101911.91;5092323;28;20120;-62
2021/09/23 10:57:17;;;;;;;;;;;;;;;18.95;61.85;101904.72;5121750;28;20570;-62
2021/09/23 10:59:43;;;;;;;3.47;1.90;;;;;;;18.94;62.09;101897.66;5125056;28;19920;-62
2021/09/23 11:02:26;;;;;;;4.47;1.90;;;;;;;18.93;62.58;101892.34;5090511;28;20752;-63
2021/09/23 11:04:54;;;;;;;6.07;2.03;;;;;;;18.98;62.54;101885.13;5103719;28;20094;-62
2021/09/23 11:07:22;;;;;;;9.35;2.25;;;;;;;19.03;62.73;101891.25;5100305;28;20106;-63
2021/09/23 11:10:08;;;;;;;15.77;2.88;;;;;;;18.99;63.20;101886.91;5120626;28;20032;-63
2021/09/23 11:12:35;;;;;;;6.93;1.98;;;;;;;18.97;62.77;101896.72;5112046;28;20028;-62
2021/09/23 11:15:03;;;;;;;9.98;1.95;;;;;;;19.03;62.90;101892.13;5106006;28;20095;-63
2021/09/23 11:17:29;;;;;;;5.97;2.03;;;;;;;19.02;63.50;101900.16;5099218;28;20028;-62